sensor_id;sensor_type;location;lat;lon;timestamp;temperature;humidity
13960;DHT22;7052;51.050;3.716;2022-07-06T00:02:07;16.20;99.90
13960;DHT22;7052;51.050;3.716;2022-07-06T00:04:34;16.20;99.90
13960;DHT22;7052;51.050;3.716;2022-07-06T00:07:01;16.20;99.90
13960;DHT22;7052;51.050;3.716;2022-07-06T00:09:29;16.20;99.90
13960;DHT22;7052;51.050;3.716;2022-07-06T00:11:56;16.10;99.90
13960;DHT22;7052;51.050;3.716;2022-07-06T00:14:23;16.10;99.90
13960;DHT22;7052;51.050;3.716;2022-07-06T00:16:49;16.00;99.90
13960;DHT22;7052;51.050;3.716;2022-07-06T00:19:16;16.00;99.90
13960;DHT22;7052;51.050;3.716;2022-07-06T00:21:43;16.00;99.90
13960;DHT22;7052;51.050;3.716;2022-07-06T00:24:10;15.90;99.90
13960;DHT22;7052;51.050;3.716;2022-07-06T00:26:39;15.90;99.90
13960;DHT22;7052;51.050;3.716;2022-07-06T00:29:06;15.90;99.90
13960;DHT22;7052;51.050;3.716;2022-07-06T00:31:34;15.80;99.90
13960;DHT22;7052;51.050;3.716;2022-07-06T00:34:01;15.80;99.90
13960;DHT22;7052;51.050;3.716;2022-07-06T00:36:28;15.80;99.90
13960;DHT22;7052;51.050;3.716;2022-07-06T00:38:55;15.80;99.90
13960;DHT22;7052;51.050;3.716;2022-07-06T00:41:22;15.80;99.90
13960;DHT22;7052;51.050;3.716;2022-07-06T00:43:52;15.70;99.90
13960;DHT22;7052;51.050;3.716;2022-07-06T00:46:23;15.70;99.90
13960;DHT22;7052;51.050;3.716;2022-07-06T00:48:52;15.70;99.90
13960;DHT22;7052;51.050;3.716;2022-07-06T00:51:25;15.70;99.90
13960;DHT22;7052;51.050;3.716;2022-07-06T00:53:55;15.70;99.90
13960;DHT22;7052;51.050;3.716;2022-07-06T00:56:25;15.70;99.90
13960;DHT22;7052;51.050;3.716;2022-07-06T00:58:55;15.80;99.90
13960;DHT22;7052;51.050;3.716;2022-07-06T01:01:22;15.80;99.90
13960;DHT22;7052;51.050;3.716;2022-07-06T01:03:50;15.90;99.90
13960;DHT22;7052;51.050;3.716;2022-07-06T01:06:16;15.80;99.90
13960;DHT22;7052;51.050;3.716;2022-07-06T01:08:43;15.80;99.90
13960;DHT22;7052;51.050;3.716;2022-07-06T01:11:13;15.80;99.90
13960;DHT22;7052;51.050;3.716;2022-07-06T01:13:40;15.70;99.90
13960;DHT22;7052;51.050;3.716;2022-07-06T01:16:09;15.70;99.90
13960;DHT22;7052;51.050;3.716;2022-07-06T01:18:37;15.70;99.90
13960;DHT22;7052;51.050;3.716;2022-07-06T01:21:08;15.70;99.90
13960;DHT22;7052;51.050;3.716;2022-07-06T01:23:39;15.80;99.90
13960;DHT22;7052;51.050;3.716;2022-07-06T01:26:09;16.00;99.90
13960;DHT22;7052;51.050;3.716;2022-07-06T01:28:36;15.80;99.90
13960;DHT22;7052;51.050;3.716;2022-07-06T01:31:03;15.80;99.90
13960;DHT22;7052;51.050;3.716;2022-07-06T01:33:31;15.80;99.90
13960;DHT22;7052;51.050;3.716;2022-07-06T01:35:58;15.80;99.90
13960;DHT22;7052;51.050;3.716;2022-07-06T01:38:26;15.80;99.90
13960;DHT22;7052;51.050;3.716;2022-07-06T01:40:53;15.70;99.90
13960;DHT22;7052;51.050;3.716;2022-07-06T01:43:19;15.70;99.90
13960;DHT22;7052;51.050;3.716;2022-07-06T01:45:46;15.70;99.90
13960;DHT22;7052;51.050;3.716;2022-07-06T01:48:13;15.80;99.90
13960;DHT22;7052;51.050;3.716;2022-07-06T01:50:40;15.70;99.90
13960;DHT22;7052;51.050;3.716;2022-07-06T01:53:07;15.80;99.90
13960;DHT22;7052;51.050;3.716;2022-07-06T01:55:35;15.60;99.90
13960;DHT22;7052;51.050;3.716;2022-07-06T01:58:02;15.60;99.90
13960;DHT22;7052;51.050;3.716;2022-07-06T02:00:29;15.50;99.90
13960;DHT22;7052;51.050;3.716;2022-07-06T02:02:56;15.40;99.90
13960;DHT22;7052;51.050;3.716;2022-07-06T02:05:23;15.40;99.90
13960;DHT22;7052;51.050;3.716;2022-07-06T02:07:50;15.30;99.90
13960;DHT22;7052;51.050;3.716;2022-07-06T02:10:17;15.30;99.90
13960;DHT22;7052;51.050;3.716;2022-07-06T02:12:45;15.30;99.90
13960;DHT22;7052;51.050;3.716;2022-07-06T02:15:12;15.20;99.90
13960;DHT22;7052;51.050;3.716;2022-07-06T02:17:39;15.20;99.90
13960;DHT22;7052;51.050;3.716;2022-07-06T02:20:07;15.20;99.90
13960;DHT22;7052;51.050;3.716;2022-07-06T02:22:34;15.20;99.90
13960;DHT22;7052;51.050;3.716;2022-07-06T02:25:00;15.20;99.90
13960;DHT22;7052;51.050;3.716;2022-07-06T02:27:27;15.20;99.90
13960;DHT22;7052;51.050;3.716;2022-07-06T02:29:55;15.10;99.90
13960;DHT22;7052;51.050;3.716;2022-07-06T02:32:22;15.10;99.90
13960;DHT22;7052;51.050;3.716;2022-07-06T02:34:49;15.00;99.90
13960;DHT22;7052;51.050;3.716;2022-07-06T02:37:16;15.00;99.90
13960;DHT22;7052;51.050;3.716;2022-07-06T02:39:43;14.90;99.90
13960;DHT22;7052;51.050;3.716;2022-07-06T02:42:10;14.90;99.90
13960;DHT22;7052;51.050;3.716;2022-07-06T02:44:37;14.90;99.90
13960;DHT22;7052;51.050;3.716;2022-07-06T02:47:05;14.80;99.90
13960;DHT22;7052;51.050;3.716;2022-07-06T02:49:32;14.80;99.90
13960;DHT22;7052;51.050;3.716;2022-07-06T02:52:01;14.80;99.90
13960;DHT22;7052;51.050;3.716;2022-07-06T02:54:28;14.70;99.90
13960;DHT22;7052;51.050;3.716;2022-07-06T02:56:55;14.70;99.90
13960;DHT22;7052;51.050;3.716;2022-07-06T02:59:22;14.70;99.90
13960;DHT22;7052;51.050;3.716;2022-07-06T03:01:49;14.70;99.90
13960;DHT22;7052;51.050;3.716;2022-07-06T03:04:17;14.60;99.90
13960;DHT22;7052;51.050;3.716;2022-07-06T03:06:44;14.50;99.90
13960;DHT22;7052;51.050;3.716;2022-07-06T03:09:11;14.50;99.90
13960;DHT22;7052;51.050;3.716;2022-07-06T03:11:39;14.50;99.90
13960;DHT22;7052;51.050;3.716;2022-07-06T03:14:06;14.50;99.90
13960;DHT22;7052;51.050;3.716;2022-07-06T03:16:33;14.50;99.90
13960;DHT22;7052;51.050;3.716;2022-07-06T03:19:00;14.50;99.90
13960;DHT22;7052;51.050;3.716;2022-07-06T03:21:28;14.60;99.90
13960;DHT22;7052;51.050;3.716;2022-07-06T03:23:57;14.50;99.90
13960;DHT22;7052;51.050;3.716;2022-07-06T03:26:24;14.60;99.90
13960;DHT22;7052;51.050;3.716;2022-07-06T03:28:51;14.50;99.90
13960;DHT22;7052;51.050;3.716;2022-07-06T03:31:19;14.50;99.90
13960;DHT22;7052;51.050;3.716;2022-07-06T03:33:46;14.50;99.90
13960;DHT22;7052;51.050;3.716;2022-07-06T03:36:13;14.50;99.90
13960;DHT22;7052;51.050;3.716;2022-07-06T03:38:45;14.50;99.90
13960;DHT22;7052;51.050;3.716;2022-07-06T03:41:14;14.40;99.90
13960;DHT22;7052;51.050;3.716;2022-07-06T03:43:40;14.40;99.90
13960;DHT22;7052;51.050;3.716;2022-07-06T03:46:08;14.40;99.90
13960;DHT22;7052;51.050;3.716;2022-07-06T03:48:35;14.40;99.90
13960;DHT22;7052;51.050;3.716;2022-07-06T03:51:03;14.40;99.90
13960;DHT22;7052;51.050;3.716;2022-07-06T03:53:31;14.40;99.90
13960;DHT22;7052;51.050;3.716;2022-07-06T03:56:00;14.40;99.90
13960;DHT22;7052;51.050;3.716;2022-07-06T03:58:44;14.40;99.90
13960;DHT22;7052;51.050;3.716;2022-07-06T04:01:11;14.40;99.90
13960;DHT22;7052;51.050;3.716;2022-07-06T04:03:40;14.70;99.90
13960;DHT22;7052;51.050;3.716;2022-07-06T04:06:07;14.40;99.90
13960;DHT22;7052;51.050;3.716;2022-07-06T04:08:34;14.50;99.90
13960;DHT22;7052;51.050;3.716;2022-07-06T04:11:02;14.50;99.90
13960;DHT22;7052;51.050;3.716;2022-07-06T04:13:29;14.50;99.90
13960;DHT22;7052;51.050;3.716;2022-07-06T04:15:56;14.50;99.90
13960;DHT22;7052;51.050;3.716;2022-07-06T04:18:23;14.60;99.90
13960;DHT22;7052;51.050;3.716;2022-07-06T04:20:51;14.50;99.90
13960;DHT22;7052;51.050;3.716;2022-07-06T04:23:18;14.50;99.90
13960;DHT22;7052;51.050;3.716;2022-07-06T04:25:47;14.40;99.90
13960;DHT22;7052;51.050;3.716;2022-07-06T04:28:16;14.40;99.90
13960;DHT22;7052;51.050;3.716;2022-07-06T04:30:43;14.40;99.90
13960;DHT22;7052;51.050;3.716;2022-07-06T04:33:10;14.40;99.90
13960;DHT22;7052;51.050;3.716;2022-07-06T04:35:37;14.40;99.90
13960;DHT22;7052;51.050;3.716;2022-07-06T04:38:04;14.40;99.90
13960;DHT22;7052;51.050;3.716;2022-07-06T04:40:32;14.40;99.90
13960;DHT22;7052;51.050;3.716;2022-07-06T04:42:59;14.40;99.90
13960;DHT22;7052;51.050;3.716;2022-07-06T04:45:29;14.50;99.90
13960;DHT22;7052;51.050;3.716;2022-07-06T04:47:56;14.50;99.90
13960;DHT22;7052;51.050;3.716;2022-07-06T04:50:23;14.50;99.90
13960;DHT22;7052;51.050;3.716;2022-07-06T04:52:52;14.50;99.90
13960;DHT22;7052;51.050;3.716;2022-07-06T04:55:19;14.60;99.90
13960;DHT22;7052;51.050;3.716;2022-07-06T04:57:46;14.60;99.90
13960;DHT22;7052;51.050;3.716;2022-07-06T05:00:14;14.70;99.90
13960;DHT22;7052;51.050;3.716;2022-07-06T05:02:42;14.70;99.90
13960;DHT22;7052;51.050;3.716;2022-07-06T05:05:09;14.80;99.90
13960;DHT22;7052;51.050;3.716;2022-07-06T05:07:37;14.90;99.90
13960;DHT22;7052;51.050;3.716;2022-07-06T05:10:07;14.90;99.90
13960;DHT22;7052;51.050;3.716;2022-07-06T05:12:34;15.00;99.90
13960;DHT22;7052;51.050;3.716;2022-07-06T05:15:01;15.00;99.90
13960;DHT22;7052;51.050;3.716;2022-07-06T05:17:28;15.10;99.90
13960;DHT22;7052;51.050;3.716;2022-07-06T05:19:56;15.20;99.90
13960;DHT22;7052;51.050;3.716;2022-07-06T05:22:23;15.20;99.90
13960;DHT22;7052;51.050;3.716;2022-07-06T05:24:50;15.30;99.90
13960;DHT22;7052;51.050;3.716;2022-07-06T05:27:17;15.30;99.90
13960;DHT22;7052;51.050;3.716;2022-07-06T05:29:46;15.40;99.90
13960;DHT22;7052;51.050;3.716;2022-07-06T05:32:13;15.40;99.90
13960;DHT22;7052;51.050;3.716;2022-07-06T05:34:40;15.50;99.90
13960;DHT22;7052;51.050;3.716;2022-07-06T05:37:08;15.60;99.90
13960;DHT22;7052;51.050;3.716;2022-07-06T05:39:35;15.70;99.90
13960;DHT22;7052;51.050;3.716;2022-07-06T05:42:04;15.80;99.90
13960;DHT22;7052;51.050;3.716;2022-07-06T05:44:31;15.90;99.90
13960;DHT22;7052;51.050;3.716;2022-07-06T05:46:58;16.00;99.90
13960;DHT22;7052;51.050;3.716;2022-07-06T05:49:38;16.10;99.90
13960;DHT22;7052;51.050;3.716;2022-07-06T05:52:24;16.20;99.90
13960;DHT22;7052;51.050;3.716;2022-07-06T05:54:51;16.30;99.90
13960;DHT22;7052;51.050;3.716;2022-07-06T05:57:18;16.40;99.90
13960;DHT22;7052;51.050;3.716;2022-07-06T05:59:45;16.60;99.90
13960;DHT22;7052;51.050;3.716;2022-07-06T06:02:11;16.70;99.90
13960;DHT22;7052;51.050;3.716;2022-07-06T06:04:38;16.80;99.90
13960;DHT22;7052;51.050;3.716;2022-07-06T06:07:05;16.90;99.90
13960;DHT22;7052;51.050;3.716;2022-07-06T06:09:33;17.30;99.90
13960;DHT22;7052;51.050;3.716;2022-07-06T06:12:00;17.50;99.90
13960;DHT22;7052;51.050;3.716;2022-07-06T06:14:27;17.80;99.90
13960;DHT22;7052;51.050;3.716;2022-07-06T06:16:54;18.10;99.90
13960;DHT22;7052;51.050;3.716;2022-07-06T06:19:20;18.40;99.90
13960;DHT22;7052;51.050;3.716;2022-07-06T06:21:47;18.70;99.90
13960;DHT22;7052;51.050;3.716;2022-07-06T06:24:14;19.20;99.90
13960;DHT22;7052;51.050;3.716;2022-07-06T06:26:43;19.70;99.90
13960;DHT22;7052;51.050;3.716;2022-07-06T06:29:10;20.00;98.90
13960;DHT22;7052;51.050;3.716;2022-07-06T06:31:36;20.20;97.60
13960;DHT22;7052;51.050;3.716;2022-07-06T06:34:04;20.40;95.40
13960;DHT22;7052;51.050;3.716;2022-07-06T06:36:31;20.40;94.70
13960;DHT22;7052;51.050;3.716;2022-07-06T06:38:58;20.30;94.60
13960;DHT22;7052;51.050;3.716;2022-07-06T06:41:25;20.40;94.60
13960;DHT22;7052;51.050;3.716;2022-07-06T06:43:53;20.70;92.70
13960;DHT22;7052;51.050;3.716;2022-07-06T06:46:20;21.00;91.00
13960;DHT22;7052;51.050;3.716;2022-07-06T06:48:47;21.30;89.10
13960;DHT22;7052;51.050;3.716;2022-07-06T06:51:14;21.40;85.70
13960;DHT22;7052;51.050;3.716;2022-07-06T06:53:41;21.60;80.90
13960;DHT22;7052;51.050;3.716;2022-07-06T06:56:08;22.00;78.40
13960;DHT22;7052;51.050;3.716;2022-07-06T06:58:35;22.20;73.80
13960;DHT22;7052;51.050;3.716;2022-07-06T07:01:04;22.40;70.40
13960;DHT22;7052;51.050;3.716;2022-07-06T07:03:31;22.60;67.10
13960;DHT22;7052;51.050;3.716;2022-07-06T07:05:58;22.70;65.80
13960;DHT22;7052;51.050;3.716;2022-07-06T07:08:25;22.70;63.00
13960;DHT22;7052;51.050;3.716;2022-07-06T07:10:52;22.80;62.20
13960;DHT22;7052;51.050;3.716;2022-07-06T07:13:20;22.80;61.60
13960;DHT22;7052;51.050;3.716;2022-07-06T07:15:46;22.70;62.00
13960;DHT22;7052;51.050;3.716;2022-07-06T07:18:15;22.70;62.00
13960;DHT22;7052;51.050;3.716;2022-07-06T07:20:41;22.50;60.30
13960;DHT22;7052;51.050;3.716;2022-07-06T07:23:08;22.60;61.50
13960;DHT22;7052;51.050;3.716;2022-07-06T07:25:35;22.70;60.80
13960;DHT22;7052;51.050;3.716;2022-07-06T07:28:04;22.90;59.60
13960;DHT22;7052;51.050;3.716;2022-07-06T07:30:31;23.00;59.10
13960;DHT22;7052;51.050;3.716;2022-07-06T07:32:58;23.00;58.60
13960;DHT22;7052;51.050;3.716;2022-07-06T07:35:27;22.90;58.70
13960;DHT22;7052;51.050;3.716;2022-07-06T07:37:55;22.80;59.80
13960;DHT22;7052;51.050;3.716;2022-07-06T07:40:21;22.80;59.60
13960;DHT22;7052;51.050;3.716;2022-07-06T07:42:48;22.70;59.30
13960;DHT22;7052;51.050;3.716;2022-07-06T07:45:15;22.80;58.80
13960;DHT22;7052;51.050;3.716;2022-07-06T07:47:42;22.80;57.70
13960;DHT22;7052;51.050;3.716;2022-07-06T07:50:10;22.70;57.10
13960;DHT22;7052;51.050;3.716;2022-07-06T07:52:39;22.90;57.90
13960;DHT22;7052;51.050;3.716;2022-07-06T07:55:07;22.80;56.30
13960;DHT22;7052;51.050;3.716;2022-07-06T07:57:34;22.80;56.20
13960;DHT22;7052;51.050;3.716;2022-07-06T08:00:01;22.70;55.10
13960;DHT22;7052;51.050;3.716;2022-07-06T08:02:28;22.60;55.10
13960;DHT22;7052;51.050;3.716;2022-07-06T08:04:55;22.20;57.60
13960;DHT22;7052;51.050;3.716;2022-07-06T08:07:22;22.00;58.20
13960;DHT22;7052;51.050;3.716;2022-07-06T08:09:50;22.10;58.80
13960;DHT22;7052;51.050;3.716;2022-07-06T08:12:17;22.10;57.80
13960;DHT22;7052;51.050;3.716;2022-07-06T08:14:44;21.90;58.90
13960;DHT22;7052;51.050;3.716;2022-07-06T08:17:10;21.90;59.80
13960;DHT22;7052;51.050;3.716;2022-07-06T08:19:37;21.90;59.20
13960;DHT22;7052;51.050;3.716;2022-07-06T08:22:04;21.80;59.70
13960;DHT22;7052;51.050;3.716;2022-07-06T08:24:33;21.90;60.20
13960;DHT22;7052;51.050;3.716;2022-07-06T08:27:01;22.00;59.70
13960;DHT22;7052;51.050;3.716;2022-07-06T08:29:28;22.10;59.20
13960;DHT22;7052;51.050;3.716;2022-07-06T08:31:56;22.10;59.30
13960;DHT22;7052;51.050;3.716;2022-07-06T08:34:23;22.10;58.80
13960;DHT22;7052;51.050;3.716;2022-07-06T08:36:50;22.00;58.20
13960;DHT22;7052;51.050;3.716;2022-07-06T08:39:17;21.90;59.40
13960;DHT22;7052;51.050;3.716;2022-07-06T08:41:44;21.80;60.20
13960;DHT22;7052;51.050;3.716;2022-07-06T08:44:15;21.70;60.30
13960;DHT22;7052;51.050;3.716;2022-07-06T08:46:42;21.60;60.40
13960;DHT22;7052;51.050;3.716;2022-07-06T08:49:13;21.60;61.30
13960;DHT22;7052;51.050;3.716;2022-07-06T08:51:42;21.60;61.30
13960;DHT22;7052;51.050;3.716;2022-07-06T08:54:11;21.70;61.50
13960;DHT22;7052;51.050;3.716;2022-07-06T08:56:38;21.50;60.90
13960;DHT22;7052;51.050;3.716;2022-07-06T08:59:05;21.40;62.30
13960;DHT22;7052;51.050;3.716;2022-07-06T09:01:35;21.30;61.40
13960;DHT22;7052;51.050;3.716;2022-07-06T09:04:05;21.30;61.30
13960;DHT22;7052;51.050;3.716;2022-07-06T09:06:33;21.30;62.50
13960;DHT22;7052;51.050;3.716;2022-07-06T09:09:05;21.30;62.40
13960;DHT22;7052;51.050;3.716;2022-07-06T09:11:32;21.40;61.40
13960;DHT22;7052;51.050;3.716;2022-07-06T09:14:01;21.40;61.20
13960;DHT22;7052;51.050;3.716;2022-07-06T09:16:28;21.40;62.00
13960;DHT22;7052;51.050;3.716;2022-07-06T09:18:57;21.50;60.40
13960;DHT22;7052;51.050;3.716;2022-07-06T09:21:25;21.60;60.50
13960;DHT22;7052;51.050;3.716;2022-07-06T09:23:54;21.80;60.90
13960;DHT22;7052;51.050;3.716;2022-07-06T09:26:21;22.00;60.80
13960;DHT22;7052;51.050;3.716;2022-07-06T09:28:49;22.20;59.40
13960;DHT22;7052;51.050;3.716;2022-07-06T09:31:16;22.30;58.00
13960;DHT22;7052;51.050;3.716;2022-07-06T09:34:00;22.40;57.50
13960;DHT22;7052;51.050;3.716;2022-07-06T09:36:44;22.40;56.90
13960;DHT22;7052;51.050;3.716;2022-07-06T09:39:23;22.40;57.60
13960;DHT22;7052;51.050;3.716;2022-07-06T09:41:51;22.30;57.80
13960;DHT22;7052;51.050;3.716;2022-07-06T09:44:22;22.40;57.20
13960;DHT22;7052;51.050;3.716;2022-07-06T09:46:50;22.40;56.80
13960;DHT22;7052;51.050;3.716;2022-07-06T09:49:20;22.40;56.50
13960;DHT22;7052;51.050;3.716;2022-07-06T09:51:49;22.40;56.50
13960;DHT22;7052;51.050;3.716;2022-07-06T09:54:16;22.50;57.00
13960;DHT22;7052;51.050;3.716;2022-07-06T09:56:45;22.50;57.00
13960;DHT22;7052;51.050;3.716;2022-07-06T09:59:16;22.50;56.80
13960;DHT22;7052;51.050;3.716;2022-07-06T10:01:43;22.50;56.90
13960;DHT22;7052;51.050;3.716;2022-07-06T10:04:12;22.70;56.80
13960;DHT22;7052;51.050;3.716;2022-07-06T10:06:41;22.80;55.90
13960;DHT22;7052;51.050;3.716;2022-07-06T10:09:09;22.60;55.10
13960;DHT22;7052;51.050;3.716;2022-07-06T10:11:38;22.70;55.50
13960;DHT22;7052;51.050;3.716;2022-07-06T10:14:06;22.80;55.20
13960;DHT22;7052;51.050;3.716;2022-07-06T10:16:35;23.00;55.50
13960;DHT22;7052;51.050;3.716;2022-07-06T10:19:04;23.10;55.20
13960;DHT22;7052;51.050;3.716;2022-07-06T10:21:32;23.10;54.10
13960;DHT22;7052;51.050;3.716;2022-07-06T10:24:02;23.00;54.80
13960;DHT22;7052;51.050;3.716;2022-07-06T10:26:29;22.80;55.10
13960;DHT22;7052;51.050;3.716;2022-07-06T10:28:58;22.70;55.10
13960;DHT22;7052;51.050;3.716;2022-07-06T10:31:25;22.60;56.00
13960;DHT22;7052;51.050;3.716;2022-07-06T10:33:55;22.60;55.00
13960;DHT22;7052;51.050;3.716;2022-07-06T10:36:22;22.70;54.60
13960;DHT22;7052;51.050;3.716;2022-07-06T10:38:51;22.70;54.30
13960;DHT22;7052;51.050;3.716;2022-07-06T10:41:31;22.60;54.40
13960;DHT22;7052;51.050;3.716;2022-07-06T10:43:57;22.60;54.40
13960;DHT22;7052;51.050;3.716;2022-07-06T10:46:28;22.60;54.30
13960;DHT22;7052;51.050;3.716;2022-07-06T10:48:56;22.60;54.50
13960;DHT22;7052;51.050;3.716;2022-07-06T10:51:24;22.70;53.90
13960;DHT22;7052;51.050;3.716;2022-07-06T10:53:56;22.70;54.60
13960;DHT22;7052;51.050;3.716;2022-07-06T10:56:32;22.80;54.50
13960;DHT22;7052;51.050;3.716;2022-07-06T10:59:02;22.90;54.70
13960;DHT22;7052;51.050;3.716;2022-07-06T11:01:29;23.00;54.70
13960;DHT22;7052;51.050;3.716;2022-07-06T11:04:07;23.00;54.40
13960;DHT22;7052;51.050;3.716;2022-07-06T11:06:36;23.00;54.00
13960;DHT22;7052;51.050;3.716;2022-07-06T11:09:05;23.00;54.00
13960;DHT22;7052;51.050;3.716;2022-07-06T11:11:41;23.00;53.60
13960;DHT22;7052;51.050;3.716;2022-07-06T11:14:11;23.00;53.10
13960;DHT22;7052;51.050;3.716;2022-07-06T11:16:41;23.10;53.20
13960;DHT22;7052;51.050;3.716;2022-07-06T11:19:26;23.20;52.80
13960;DHT22;7052;51.050;3.716;2022-07-06T11:21:54;23.20;52.20
13960;DHT22;7052;51.050;3.716;2022-07-06T11:24:24;23.30;52.40
13960;DHT22;7052;51.050;3.716;2022-07-06T11:26:54;23.40;52.10
13960;DHT22;7052;51.050;3.716;2022-07-06T11:29:23;23.50;51.20
13960;DHT22;7052;51.050;3.716;2022-07-06T11:31:51;23.70;51.20
13960;DHT22;7052;51.050;3.716;2022-07-06T11:34:20;23.70;50.40
13960;DHT22;7052;51.050;3.716;2022-07-06T11:36:47;23.60;49.70
13960;DHT22;7052;51.050;3.716;2022-07-06T11:39:14;23.70;49.80
13960;DHT22;7052;51.050;3.716;2022-07-06T11:41:42;23.80;50.20
13960;DHT22;7052;51.050;3.716;2022-07-06T11:44:11;23.90;50.20
13960;DHT22;7052;51.050;3.716;2022-07-06T11:46:38;23.90;50.50
13960;DHT22;7052;51.050;3.716;2022-07-06T11:49:08;24.00;50.50
13960;DHT22;7052;51.050;3.716;2022-07-06T11:51:36;24.00;50.70
13960;DHT22;7052;51.050;3.716;2022-07-06T11:54:09;23.90;50.80
13960;DHT22;7052;51.050;3.716;2022-07-06T11:56:36;23.90;51.30
13960;DHT22;7052;51.050;3.716;2022-07-06T11:59:04;23.90;50.40
13960;DHT22;7052;51.050;3.716;2022-07-06T12:01:32;23.90;49.80
13960;DHT22;7052;51.050;3.716;2022-07-06T12:04:00;23.90;49.60
13960;DHT22;7052;51.050;3.716;2022-07-06T12:06:28;23.90;49.60
13960;DHT22;7052;51.050;3.716;2022-07-06T12:08:58;23.90;49.40
13960;DHT22;7052;51.050;3.716;2022-07-06T12:11:27;24.00;49.60
13960;DHT22;7052;51.050;3.716;2022-07-06T12:13:56;24.00;50.20
13960;DHT22;7052;51.050;3.716;2022-07-06T12:16:30;24.00;49.60
13960;DHT22;7052;51.050;3.716;2022-07-06T12:18:58;24.00;49.50
13960;DHT22;7052;51.050;3.716;2022-07-06T12:21:25;24.00;50.40
13960;DHT22;7052;51.050;3.716;2022-07-06T12:23:53;24.00;50.30
13960;DHT22;7052;51.050;3.716;2022-07-06T12:26:22;24.00;50.40
13960;DHT22;7052;51.050;3.716;2022-07-06T12:28:59;24.00;49.70
13960;DHT22;7052;51.050;3.716;2022-07-06T12:31:34;24.10;49.00
13960;DHT22;7052;51.050;3.716;2022-07-06T12:34:03;24.30;49.50
13960;DHT22;7052;51.050;3.716;2022-07-06T12:36:30;24.30;49.40
13960;DHT22;7052;51.050;3.716;2022-07-06T12:38:58;24.20;49.50
13960;DHT22;7052;51.050;3.716;2022-07-06T12:41:31;24.20;50.00
13960;DHT22;7052;51.050;3.716;2022-07-06T12:44:07;24.30;50.20
13960;DHT22;7052;51.050;3.716;2022-07-06T12:46:35;24.40;50.10
13960;DHT22;7052;51.050;3.716;2022-07-06T12:49:11;24.60;48.70
13960;DHT22;7052;51.050;3.716;2022-07-06T12:51:55;24.70;48.60
13960;DHT22;7052;51.050;3.716;2022-07-06T12:54:24;25.00;47.70
13960;DHT22;7052;51.050;3.716;2022-07-06T12:57:03;25.00;47.80
13960;DHT22;7052;51.050;3.716;2022-07-06T12:59:31;25.00;48.10
13960;DHT22;7052;51.050;3.716;2022-07-06T13:01:59;25.00;48.10
13960;DHT22;7052;51.050;3.716;2022-07-06T13:04:29;24.80;48.50
13960;DHT22;7052;51.050;3.716;2022-07-06T13:06:57;24.90;48.90
13960;DHT22;7052;51.050;3.716;2022-07-06T13:09:24;24.90;49.30
13960;DHT22;7052;51.050;3.716;2022-07-06T13:11:51;25.20;48.70
13960;DHT22;7052;51.050;3.716;2022-07-06T13:14:18;25.30;48.40
13960;DHT22;7052;51.050;3.716;2022-07-06T13:16:46;25.20;48.30
13960;DHT22;7052;51.050;3.716;2022-07-06T13:19:13;25.00;48.90
13960;DHT22;7052;51.050;3.716;2022-07-06T13:21:41;24.90;49.30
13960;DHT22;7052;51.050;3.716;2022-07-06T13:24:10;25.00;49.40
13960;DHT22;7052;51.050;3.716;2022-07-06T13:26:37;25.00;48.90
13960;DHT22;7052;51.050;3.716;2022-07-06T13:29:03;25.00;49.00
13960;DHT22;7052;51.050;3.716;2022-07-06T13:31:30;25.10;49.10
13960;DHT22;7052;51.050;3.716;2022-07-06T13:33:57;24.90;48.80
13960;DHT22;7052;51.050;3.716;2022-07-06T13:36:24;24.80;49.70
13960;DHT22;7052;51.050;3.716;2022-07-06T13:38:53;25.00;49.50
13960;DHT22;7052;51.050;3.716;2022-07-06T13:41:20;25.20;49.10
13960;DHT22;7052;51.050;3.716;2022-07-06T13:43:47;25.30;48.80
13960;DHT22;7052;51.050;3.716;2022-07-06T13:46:15;25.10;49.00
13960;DHT22;7052;51.050;3.716;2022-07-06T13:48:42;25.10;49.00
13960;DHT22;7052;51.050;3.716;2022-07-06T13:51:09;25.00;49.00
13960;DHT22;7052;51.050;3.716;2022-07-06T13:53:36;25.00;49.10
13960;DHT22;7052;51.050;3.716;2022-07-06T13:56:05;25.10;49.10
13960;DHT22;7052;51.050;3.716;2022-07-06T13:58:33;25.20;49.20
13960;DHT22;7052;51.050;3.716;2022-07-06T14:01:00;25.30;48.90
13960;DHT22;7052;51.050;3.716;2022-07-06T14:03:27;25.20;49.20
13960;DHT22;7052;51.050;3.716;2022-07-06T14:05:55;25.10;49.00
13960;DHT22;7052;51.050;3.716;2022-07-06T14:08:22;25.20;49.10
13960;DHT22;7052;51.050;3.716;2022-07-06T14:10:49;25.30;48.90
13960;DHT22;7052;51.050;3.716;2022-07-06T14:13:17;25.40;48.80
13960;DHT22;7052;51.050;3.716;2022-07-06T14:15:44;25.40;48.50
13960;DHT22;7052;51.050;3.716;2022-07-06T14:18:11;25.40;48.70
13960;DHT22;7052;51.050;3.716;2022-07-06T14:20:40;25.30;49.00
13960;DHT22;7052;51.050;3.716;2022-07-06T14:23:07;25.40;48.90
13960;DHT22;7052;51.050;3.716;2022-07-06T14:25:34;25.40;48.80
13960;DHT22;7052;51.050;3.716;2022-07-06T14:28:03;25.30;48.90
13960;DHT22;7052;51.050;3.716;2022-07-06T14:30:31;25.20;49.50
13960;DHT22;7052;51.050;3.716;2022-07-06T14:32:59;25.00;49.90
13960;DHT22;7052;51.050;3.716;2022-07-06T14:35:27;24.80;50.80
13960;DHT22;7052;51.050;3.716;2022-07-06T14:37:54;24.50;51.50
13960;DHT22;7052;51.050;3.716;2022-07-06T14:40:20;24.40;51.90
13960;DHT22;7052;51.050;3.716;2022-07-06T14:42:47;24.20;52.70
13960;DHT22;7052;51.050;3.716;2022-07-06T14:45:14;24.10;53.40
13960;DHT22;7052;51.050;3.716;2022-07-06T14:47:42;24.00;53.40
13960;DHT22;7052;51.050;3.716;2022-07-06T14:50:09;24.00;54.30
13960;DHT22;7052;51.050;3.716;2022-07-06T14:52:37;23.90;54.70
13960;DHT22;7052;51.050;3.716;2022-07-06T14:55:05;23.80;54.90
13960;DHT22;7052;51.050;3.716;2022-07-06T14:57:32;23.70;55.50
13960;DHT22;7052;51.050;3.716;2022-07-06T14:59:58;23.70;56.00
13960;DHT22;7052;51.050;3.716;2022-07-06T15:02:25;23.90;55.90
13960;DHT22;7052;51.050;3.716;2022-07-06T15:04:53;23.90;55.50
13960;DHT22;7052;51.050;3.716;2022-07-06T15:07:20;24.20;55.30
13960;DHT22;7052;51.050;3.716;2022-07-06T15:09:48;24.20;54.40
13960;DHT22;7052;51.050;3.716;2022-07-06T15:12:15;24.20;54.40
13960;DHT22;7052;51.050;3.716;2022-07-06T15:14:43;24.30;54.00
13960;DHT22;7052;51.050;3.716;2022-07-06T15:17:10;24.30;54.00
13960;DHT22;7052;51.050;3.716;2022-07-06T15:19:37;24.30;52.90
13960;DHT22;7052;51.050;3.716;2022-07-06T15:22:06;24.50;51.90
13960;DHT22;7052;51.050;3.716;2022-07-06T15:24:33;24.50;51.50
13960;DHT22;7052;51.050;3.716;2022-07-06T15:27:00;24.70;51.10
13960;DHT22;7052;51.050;3.716;2022-07-06T15:29:28;24.80;49.30
13960;DHT22;7052;51.050;3.716;2022-07-06T15:31:54;24.90;48.90
13960;DHT22;7052;51.050;3.716;2022-07-06T15:34:21;25.00;48.60
13960;DHT22;7052;51.050;3.716;2022-07-06T15:36:48;24.90;48.50
13960;DHT22;7052;51.050;3.716;2022-07-06T15:39:17;24.90;48.50
13960;DHT22;7052;51.050;3.716;2022-07-06T15:41:45;24.80;48.20
13960;DHT22;7052;51.050;3.716;2022-07-06T15:44:12;24.80;48.50
13960;DHT22;7052;51.050;3.716;2022-07-06T15:46:38;24.80;48.20
13960;DHT22;7052;51.050;3.716;2022-07-06T15:49:05;24.70;48.00
13960;DHT22;7052;51.050;3.716;2022-07-06T15:51:32;24.60;48.20